Houston, Texas
Traffic Map
Current Weather Conditions
Houston, Texas
Overcast
Overcast
14°
Feels Like: 14°
Wind Chill: 14° Ceiling: 200
Heat Index: 14° Visibility: 2mi
Dew Point: 14° Wind: 7mph
Humidity: 100% Direction: 50° (NE)
Pressure: 30.13in Gusts: 0mph
Raw Report DataKMCJ 030255Z AUTO 05006KT 2SM OVC002 14/14 A3013 RMK AO1
Traffic Incident Summary
Active as of:
Severity:
Category:
InformationThere was an issue retrieving the traffic information for this location. Please try a different location or try again shortly.
Advertisements
Track Severe Weather on mobile